createdAt,value
2022-08-25T00:00:21.973Z,11.30
2022-08-25T00:02:56.199Z,13.23
2022-08-25T00:05:29.309Z,7.38
2022-08-25T00:07:58.534Z,10.57
2022-08-25T00:10:28.753Z,10.07
2022-08-25T00:12:57.542Z,12.43
2022-08-25T00:15:26.672Z,11.32
2022-08-25T00:17:55.520Z,11.68
2022-08-25T00:20:25.441Z,10.88
2022-08-25T00:22:55.301Z,11.23
2022-08-25T00:25:25.046Z,12.82
2022-08-25T00:27:55.403Z,12.45
2022-08-25T00:30:24.396Z,14.57
2022-08-25T00:32:55.463Z,12.93
2022-08-25T00:35:27.844Z,12.35
2022-08-25T00:37:57.359Z,12.85
2022-08-25T00:40:28.437Z,16.73
2022-08-25T00:42:59.105Z,10.77
2022-08-25T00:45:28.613Z,18.38
2022-08-25T00:48:00.101Z,14.95
2022-08-25T00:50:30.422Z,10.15
2022-08-25T00:53:03.330Z,17.35
2022-08-25T00:55:35.617Z,9.35
2022-08-25T00:58:11.699Z,12.13
2022-08-25T01:00:44.345Z,12.90
2022-08-25T01:03:16.237Z,10.93
2022-08-25T01:05:46.698Z,11.23
2022-08-25T01:08:21.245Z,16.90
2022-08-25T01:10:51.370Z,9.30
2022-08-25T01:13:27.732Z,10.10
2022-08-25T01:15:58.987Z,10.93
2022-08-25T01:18:28.498Z,9.63
2022-08-25T01:21:00.893Z,12.38
2022-08-25T01:23:29.843Z,14.37
2022-08-25T01:26:04.922Z,10.68
2022-08-25T01:28:33.966Z,8.57
2022-08-25T01:31:03.026Z,9.93
2022-08-25T01:33:32.191Z,12.13
2022-08-25T01:36:03.349Z,8.07
2022-08-25T01:38:32.411Z,11.45
2022-08-25T01:41:01.228Z,11.15
2022-08-25T01:43:37.158Z,10.35
2022-08-25T01:46:06.807Z,18.52
2022-08-25T01:48:35.817Z,11.65
2022-08-25T01:51:06.015Z,9.98
2022-08-25T01:53:34.876Z,12.43
2022-08-25T01:56:11.602Z,12.20
2022-08-25T01:58:43.141Z,12.88
2022-08-25T02:01:16.051Z,14.02
2022-08-25T02:03:47.997Z,8.77
2022-08-25T02:06:21.866Z,7.97
2022-08-25T02:09:01.208Z,13.00
2022-08-25T02:11:30.129Z,10.13
2022-08-25T02:13:59.221Z,10.80
2022-08-25T02:16:31.883Z,11.13
2022-08-25T02:19:01.772Z,10.90
2022-08-25T02:21:32.577Z,11.05
2022-08-25T02:24:01.395Z,10.10
2022-08-25T02:26:30.275Z,11.82
2022-08-25T02:28:59.035Z,11.15
2022-08-25T02:31:28.577Z,12.82
2022-08-25T02:33:58.041Z,8.40
2022-08-25T02:36:27.108Z,11.93
2022-08-25T02:38:57.480Z,14.63
2022-08-25T02:41:31.375Z,12.23
2022-08-25T02:44:01.751Z,13.23
2022-08-25T02:46:31.215Z,11.25
2022-08-25T02:49:00.416Z,9.85
2022-08-25T02:51:30.559Z,11.50
2022-08-25T02:54:03.230Z,10.90
2022-08-25T02:56:33.449Z,12.55
2022-08-25T02:59:03.098Z,12.30
2022-08-25T03:01:33.438Z,10.27
2022-08-25T03:04:02.980Z,10.07
2022-08-25T03:06:31.872Z,11.15
2022-08-25T03:09:02.668Z,11.25
2022-08-25T03:11:31.907Z,12.00
2022-08-25T03:14:00.784Z,9.25
2022-08-25T03:16:29.587Z,12.20
2022-08-25T03:18:59.517Z,9.55
2022-08-25T03:21:30.459Z,12.82
2022-08-25T03:24:01.556Z,12.82
2022-08-25T03:26:47.635Z,9.63
2022-08-25T03:29:16.419Z,17.98
2022-08-25T03:31:45.864Z,10.50
2022-08-25T03:34:16.861Z,11.23
2022-08-25T03:36:47.142Z,11.98
2022-08-25T03:39:17.818Z,17.02
2022-08-25T03:41:47.308Z,14.75
2022-08-25T03:44:16.894Z,11.07
2022-08-25T03:46:47.639Z,10.30
2022-08-25T03:49:19.095Z,10.88
2022-08-25T03:51:50.318Z,11.90
2022-08-25T03:54:23.322Z,11.95
2022-08-25T03:56:52.341Z,11.43
2022-08-25T03:59:21.461Z,14.43
2022-08-25T04:01:54.991Z,16.17
2022-08-25T04:04:24.675Z,11.68
2022-08-25T04:06:54.038Z,10.18
2022-08-25T04:09:24.294Z,10.95
2022-08-25T04:11:53.683Z,12.00
2022-08-25T04:14:24.688Z,10.52
2022-08-25T04:16:54.237Z,12.00
2022-08-25T04:19:23.531Z,13.80
2022-08-25T04:21:54.523Z,12.02
2022-08-25T04:26:55.936Z,13.52
2022-08-25T04:29:26.627Z,12.52
2022-08-25T04:31:56.716Z,11.00
2022-08-25T04:34:29.419Z,10.00
2022-08-25T04:37:01.604Z,11.77
2022-08-25T04:39:32.359Z,10.23
2022-08-25T04:42:01.467Z,13.68
2022-08-25T04:44:31.973Z,13.82
2022-08-25T04:47:02.660Z,11.30
2022-08-25T04:49:32.238Z,12.82
2022-08-25T04:52:01.120Z,14.35
2022-08-25T04:54:36.040Z,11.70
2022-08-25T04:57:07.081Z,11.25
2022-08-25T04:59:36.006Z,10.98
2022-08-25T05:02:06.717Z,14.02
2022-08-25T05:04:37.582Z,14.43
2022-08-25T05:07:06.710Z,15.75
2022-08-25T05:09:37.850Z,18.38
2022-08-25T05:12:07.164Z,10.85
2022-08-25T05:14:36.141Z,11.30
2022-08-25T05:17:05.042Z,9.68
2022-08-25T05:19:33.962Z,9.45
2022-08-25T05:22:02.771Z,11.85
2022-08-25T05:24:31.762Z,10.43
2022-08-25T05:27:03.302Z,10.75
2022-08-25T05:29:32.147Z,11.52
2022-08-25T05:32:01.004Z,9.95
2022-08-25T05:34:30.276Z,13.25
2022-08-25T05:37:00.267Z,12.82
2022-08-25T05:39:32.662Z,11.57
2022-08-25T05:42:02.746Z,13.40
2022-08-25T05:44:31.687Z,16.75
2022-08-25T05:47:00.498Z,13.85
2022-08-25T05:49:29.491Z,13.15
2022-08-25T05:51:58.271Z,14.55
2022-08-25T05:54:27.188Z,11.45
2022-08-25T05:56:56.471Z,14.50
2022-08-25T05:59:26.675Z,11.52
2022-08-25T06:02:12.814Z,8.80
2022-08-25T06:04:41.632Z,9.20
2022-08-25T06:07:10.665Z,9.70
2022-08-25T06:09:40.026Z,13.65
2022-08-25T06:12:09.919Z,12.23
2022-08-25T06:14:40.097Z,11.82
2022-08-25T06:17:08.931Z,10.63
2022-08-25T06:19:39.770Z,14.23
2022-08-25T06:22:10.254Z,9.63
2022-08-25T06:24:38.986Z,11.82
2022-08-25T06:27:07.668Z,14.15
2022-08-25T06:29:36.559Z,13.75
2022-08-25T06:32:08.971Z,14.13
2022-08-25T06:34:37.743Z,14.05
2022-08-25T06:37:06.914Z,14.15
2022-08-25T06:39:35.703Z,11.60
2022-08-25T06:42:04.611Z,12.77
2022-08-25T06:44:34.081Z,24.02
2022-08-25T06:47:03.020Z,12.75
2022-08-25T06:49:36.235Z,13.95
2022-08-25T06:52:05.898Z,13.05
2022-08-25T06:54:34.684Z,17.05
2022-08-25T06:57:04.623Z,18.08
2022-08-25T06:59:33.595Z,14.25
2022-08-25T07:02:03.201Z,14.90
2022-08-25T07:04:34.706Z,12.98
2022-08-25T07:07:03.748Z,11.18
2022-08-25T07:09:36.306Z,11.75
2022-08-25T07:12:08.805Z,9.80
2022-08-25T07:14:38.031Z,13.40
2022-08-25T07:17:12.443Z,14.65
2022-08-25T07:19:42.978Z,15.57
2022-08-25T07:22:12.844Z,17.63
2022-08-25T07:24:42.595Z,11.00
2022-08-25T07:27:11.568Z,12.98
2022-08-25T07:29:42.624Z,16.27
2022-08-25T07:32:11.863Z,16.02
2022-08-25T07:34:59.806Z,13.02
2022-08-25T07:37:47.935Z,12.20
2022-08-25T07:40:21.348Z,11.48
2022-08-25T07:42:51.769Z,13.05
2022-08-25T07:45:25.579Z,14.13
2022-08-25T07:47:54.604Z,14.60
2022-08-25T07:50:24.879Z,13.90
2022-08-25T07:52:55.205Z,9.50
2022-08-25T07:55:24.824Z,9.77
2022-08-25T07:57:55.992Z,15.93
2022-08-25T08:00:27.939Z,12.38
2022-08-25T08:02:57.782Z,12.15
2022-08-25T08:05:29.473Z,8.98
2022-08-25T08:07:59.585Z,11.87
2022-08-25T08:13:18.808Z,9.93
2022-08-25T08:15:48.814Z,10.30
2022-08-25T08:18:18.387Z,19.75
2022-08-25T08:20:50.114Z,12.55
2022-08-25T08:23:19.014Z,13.52
2022-08-25T08:25:48.262Z,10.55
2022-08-25T08:28:17.227Z,14.93
2022-08-25T08:30:53.014Z,12.50
2022-08-25T08:33:24.808Z,14.52
2022-08-25T08:36:05.041Z,14.10
2022-08-25T08:38:35.019Z,11.60
2022-08-25T08:42:09.774Z,13.02
2022-08-25T08:44:51.577Z,16.95
2022-08-25T08:47:30.203Z,14.52
2022-08-25T08:50:06.704Z,11.52
2022-08-25T08:52:44.547Z,10.27
2022-08-25T08:55:26.532Z,12.82
2022-08-25T08:57:58.483Z,12.25
2022-08-25T09:00:28.891Z,8.00
2022-08-25T09:03:05.458Z,11.93
2022-08-25T09:05:47.200Z,17.05
2022-08-25T09:08:20.533Z,10.68
2022-08-25T09:11:01.624Z,7.75
2022-08-25T09:13:43.666Z,10.00
2022-08-25T09:16:38.991Z,12.15
2022-08-25T09:19:32.084Z,9.23
2022-08-25T09:22:35.927Z,11.77
2022-08-25T09:25:10.461Z,8.90
2022-08-25T09:27:45.592Z,10.07
2022-08-25T09:30:17.047Z,9.82
2022-08-25T09:32:52.325Z,13.32
2022-08-25T09:35:26.198Z,5.88
2022-08-25T09:38:00.241Z,9.13
2022-08-25T09:40:33.894Z,9.70
2022-08-25T09:43:05.757Z,8.60
2022-08-25T09:45:42.326Z,6.20
2022-08-25T09:48:28.389Z,9.25
2022-08-25T09:51:02.552Z,13.60
2022-08-25T09:53:33.853Z,9.27
2022-08-25T09:56:08.139Z,7.25
2022-08-25T09:58:37.208Z,11.85
2022-08-25T10:01:14.385Z,8.18
2022-08-25T10:04:05.058Z,10.15
2022-08-25T10:06:43.842Z,10.60
2022-08-25T10:09:24.839Z,8.80
2022-08-25T10:11:57.956Z,8.88
2022-08-25T10:14:36.636Z,11.32
2022-08-25T10:17:24.762Z,6.63
2022-08-25T10:20:17.426Z,11.10
2022-08-25T10:22:48.343Z,7.22
2022-08-25T10:25:24.602Z,5.57
2022-08-25T10:28:08.786Z,8.90
2022-08-25T10:30:47.738Z,7.60
2022-08-25T10:33:25.965Z,7.75
2022-08-25T10:36:00.328Z,6.35
2022-08-25T10:38:38.708Z,6.75
2022-08-25T10:41:42.669Z,8.77
2022-08-25T10:44:39.976Z,4.75
2022-08-25T10:47:45.269Z,3.92
2022-08-25T10:50:20.388Z,3.20
2022-08-25T10:53:06.036Z,9.25
2022-08-25T10:55:49.027Z,11.40
2022-08-25T10:58:25.909Z,6.50
2022-08-25T11:01:09.823Z,10.02
2022-08-25T11:03:49.348Z,5.75
2022-08-25T11:06:24.950Z,5.55
2022-08-25T11:08:58.788Z,6.55
2022-08-25T11:11:32.939Z,5.50
2022-08-25T11:14:11.053Z,5.60
2022-08-25T11:16:46.178Z,5.22
2022-08-25T11:19:21.833Z,4.95
2022-08-25T11:21:57.873Z,3.88
2022-08-25T11:25:04.120Z,3.83
2022-08-25T11:27:38.205Z,4.50
2022-08-25T11:30:10.397Z,4.78
2022-08-25T11:32:42.061Z,6.45
2022-08-25T11:35:13.612Z,7.00
2022-08-25T11:37:47.792Z,7.18
2022-08-25T11:40:45.558Z,6.40
2022-08-25T11:43:40.631Z,3.85
2022-08-25T11:46:32.704Z,3.97
2022-08-25T11:49:26.755Z,4.25
2022-08-25T11:51:55.666Z,8.85
2022-08-25T11:54:38.846Z,10.27
2022-08-25T11:57:22.596Z,5.68
2022-08-25T12:00:07.139Z,4.45
2022-08-25T12:02:39.327Z,6.25
2022-08-25T12:05:13.110Z,6.55
2022-08-25T12:08:22.892Z,5.10
2022-08-25T12:10:59.012Z,5.78
2022-08-25T12:13:42.602Z,8.77
2022-08-25T12:16:38.919Z,7.90
2022-08-25T12:19:29.595Z,7.65
2022-08-25T12:22:38.934Z,6.38
2022-08-25T12:25:15.618Z,8.35
2022-08-25T12:27:56.887Z,4.80
2022-08-25T12:30:36.768Z,6.00
2022-08-25T12:33:14.698Z,4.57
2022-08-25T12:35:56.479Z,14.95
2022-08-25T12:41:05.427Z,5.32
2022-08-25T12:43:37.880Z,5.80
2022-08-25T12:46:36.795Z,6.80
2022-08-25T12:49:14.402Z,7.72
2022-08-25T12:51:54.276Z,5.28
2022-08-25T12:54:43.603Z,6.10
2022-08-25T12:57:38.141Z,8.82
2022-08-25T13:00:18.927Z,4.57
2022-08-25T13:03:11.043Z,6.90
2022-08-25T13:06:08.999Z,8.98
2022-08-25T13:08:57.931Z,4.00
2022-08-25T13:11:35.233Z,4.57
2022-08-25T13:14:13.537Z,5.30
2022-08-25T13:16:54.630Z,4.50
2022-08-25T13:19:25.447Z,7.70
2022-08-25T13:21:56.812Z,5.82
2022-08-25T13:26:59.901Z,4.70
2022-08-25T13:29:36.951Z,4.95
2022-08-25T13:32:21.532Z,6.07
2022-08-25T13:37:30.532Z,5.70
2022-08-25T13:40:12.022Z,8.60
2022-08-25T13:42:48.975Z,5.05
2022-08-25T13:45:25.082Z,4.43
2022-08-25T13:50:35.096Z,8.23
2022-08-25T13:53:11.340Z,8.93
2022-08-25T13:55:50.914Z,7.78
2022-08-25T13:58:38.658Z,11.65
2022-08-25T14:01:23.253Z,7.30
2022-08-25T14:07:07.369Z,9.15
2022-08-25T14:09:41.918Z,4.32
2022-08-25T14:15:04.882Z,6.30
2022-08-25T14:17:39.955Z,7.97
2022-08-25T14:20:20.687Z,7.85
2022-08-25T14:22:54.689Z,6.95
2022-08-25T14:25:23.643Z,8.55
2022-08-25T14:28:13.707Z,3.25
2022-08-25T14:30:51.793Z,6.63
2022-08-25T14:33:23.616Z,7.13
2022-08-25T14:35:54.974Z,5.13
2022-08-25T14:38:24.049Z,7.25
2022-08-25T14:40:53.836Z,6.60
2022-08-25T14:43:24.012Z,6.35
2022-08-25T14:46:04.996Z,7.03
2022-08-25T14:48:40.557Z,6.57
2022-08-25T14:51:13.171Z,7.55
2022-08-25T14:53:42.485Z,7.43
2022-08-25T14:56:12.206Z,6.40
2022-08-25T14:58:50.788Z,7.95
2022-08-25T15:01:29.474Z,4.82
2022-08-25T15:04:04.729Z,4.68
2022-08-25T15:06:35.525Z,6.30
2022-08-25T15:09:11.696Z,8.20
2022-08-25T15:11:43.631Z,5.70
2022-08-25T15:14:15.703Z,4.95
2022-08-25T15:16:50.461Z,7.55
2022-08-25T15:19:21.727Z,5.75
2022-08-25T15:21:52.728Z,6.55
2022-08-25T15:24:25.713Z,8.13
2022-08-25T15:26:57.013Z,6.10
2022-08-25T15:32:00.199Z,6.57
2022-08-25T15:34:29.281Z,4.57
2022-08-25T15:36:59.053Z,7.50
2022-08-25T15:39:28.458Z,6.18
2022-08-25T15:41:57.405Z,14.57
2022-08-25T15:44:29.698Z,9.05
2022-08-25T15:47:00.810Z,8.90
2022-08-25T15:49:31.187Z,6.07
2022-08-25T15:52:00.398Z,4.30
2022-08-25T15:54:30.975Z,9.55
2022-08-25T15:57:00.698Z,7.10
2022-08-25T15:59:30.750Z,9.20
2022-08-25T16:02:03.288Z,10.02
2022-08-25T16:04:33.289Z,14.40
2022-08-25T16:07:02.147Z,9.15
2022-08-25T16:09:33.124Z,7.57
2022-08-25T16:12:06.737Z,6.32
2022-08-25T16:14:38.569Z,8.85
2022-08-25T16:17:09.168Z,8.82
2022-08-25T16:19:38.384Z,9.10
2022-08-25T16:22:10.902Z,5.72
2022-08-25T16:24:42.122Z,8.32
2022-08-25T16:27:12.174Z,8.50
2022-08-25T16:29:43.884Z,7.38
2022-08-25T16:32:16.102Z,8.73
2022-08-25T16:34:44.992Z,7.13
2022-08-25T16:37:16.481Z,8.75
2022-08-25T16:39:46.301Z,12.18
2022-08-25T16:42:15.340Z,8.23
2022-08-25T16:44:44.790Z,7.32
2022-08-25T16:47:17.655Z,9.40
2022-08-25T16:49:49.800Z,8.65
2022-08-25T16:52:37.781Z,7.30
2022-08-25T16:55:16.547Z,8.63
2022-08-25T16:57:48.164Z,6.60
2022-08-25T17:02:52.082Z,11.13
2022-08-25T17:08:09.864Z,9.57
2022-08-25T17:10:43.665Z,12.75
2022-08-25T17:13:14.055Z,9.80
2022-08-25T17:15:45.215Z,9.68
2022-08-25T17:18:16.208Z,11.38
2022-08-25T17:20:46.117Z,13.73
2022-08-25T17:23:16.412Z,10.55
2022-08-25T17:25:45.362Z,8.82
2022-08-25T17:28:14.160Z,9.88
2022-08-25T17:30:43.550Z,11.15
2022-08-25T17:33:14.341Z,16.25
2022-08-25T17:35:47.611Z,11.52
2022-08-25T17:38:20.866Z,9.88
2022-08-25T17:40:49.902Z,15.82
2022-08-25T17:43:18.908Z,15.77
2022-08-25T17:45:48.275Z,12.05
2022-08-25T17:48:18.607Z,11.68
2022-08-25T17:50:49.443Z,13.52
2022-08-25T17:53:19.563Z,13.10
2022-08-25T17:55:48.906Z,12.75
2022-08-25T17:58:19.150Z,13.43
2022-08-25T18:00:49.587Z,13.05
2022-08-25T18:03:19.576Z,17.85
2022-08-25T18:05:50.493Z,14.93
2022-08-25T18:08:19.656Z,15.55
2022-08-25T18:11:01.742Z,18.23
2022-08-25T18:13:31.768Z,15.10
2022-08-25T18:16:03.206Z,13.52
2022-08-25T18:21:06.806Z,20.02
2022-08-25T18:23:36.001Z,13.07
2022-08-25T18:26:06.755Z,19.45
2022-08-25T18:28:36.465Z,18.17
2022-08-25T18:31:07.547Z,13.23
2022-08-25T18:33:38.195Z,15.38
2022-08-25T18:36:12.881Z,12.02
2022-08-25T18:39:00.192Z,15.15
2022-08-25T18:41:36.696Z,14.32
2022-08-25T18:44:07.482Z,17.55
2022-08-25T18:46:37.175Z,19.85
2022-08-25T18:49:08.644Z,16.15
2022-08-25T18:51:40.159Z,17.63
2022-08-25T18:54:23.120Z,15.75
2022-08-25T18:56:54.793Z,14.73
2022-08-25T18:59:24.355Z,16.42
2022-08-25T19:01:55.137Z,17.13
2022-08-25T19:04:31.279Z,17.38
2022-08-25T19:07:03.477Z,19.65
2022-08-25T19:09:33.657Z,15.27
2022-08-25T19:12:02.595Z,15.45
2022-08-25T19:14:31.777Z,13.75
2022-08-25T19:17:01.119Z,14.65
2022-08-25T19:19:30.193Z,14.60
2022-08-25T19:21:59.517Z,14.27
2022-08-25T19:24:30.074Z,12.27
2022-08-25T19:27:02.439Z,14.50
2022-08-25T19:29:31.720Z,18.17
2022-08-25T19:32:02.720Z,18.45
2022-08-25T19:34:36.184Z,16.10
2022-08-25T19:37:06.965Z,12.95
2022-08-25T19:39:41.665Z,10.52
2022-08-25T19:42:34.826Z,11.73
2022-08-25T19:45:01.172Z,13.48
2022-08-25T19:47:32.202Z,12.02
2022-08-25T19:50:01.538Z,11.90
2022-08-25T19:52:30.668Z,13.75
2022-08-25T19:55:02.881Z,14.45
2022-08-25T19:57:42.901Z,13.95
2022-08-25T20:00:16.656Z,15.88
2022-08-25T20:02:45.917Z,11.93
2022-08-25T20:05:23.671Z,12.52
2022-08-25T20:07:55.145Z,11.88
2022-08-25T20:10:28.017Z,12.40
2022-08-25T20:13:00.806Z,16.92
2022-08-25T20:15:34.342Z,12.90
2022-08-25T20:18:06.549Z,14.75
2022-08-25T20:20:36.363Z,11.80
2022-08-25T20:23:22.892Z,16.58
2022-08-25T20:25:53.145Z,11.10
2022-08-25T20:28:22.125Z,12.68
2022-08-25T20:30:50.943Z,15.88
2022-08-25T20:33:22.615Z,18.25
2022-08-25T20:35:53.166Z,13.77
2022-08-25T20:38:22.510Z,11.63
2022-08-25T20:40:53.209Z,11.10
2022-08-25T20:43:22.141Z,15.48
2022-08-25T20:45:51.040Z,17.27
2022-08-25T20:48:19.881Z,13.63
2022-08-25T20:50:54.332Z,15.48
2022-08-25T20:53:27.124Z,16.00
2022-08-25T20:55:57.797Z,15.15
2022-08-25T20:58:26.954Z,13.88
2022-08-25T21:00:56.498Z,11.90
2022-08-25T21:03:25.420Z,16.38
2022-08-25T21:05:54.397Z,15.05
2022-08-25T21:08:23.828Z,12.10
2022-08-25T21:10:54.718Z,14.27
2022-08-25T21:13:24.847Z,12.90
2022-08-25T21:15:54.535Z,11.50
2022-08-25T21:18:23.414Z,12.90
2022-08-25T21:20:53.017Z,12.77
2022-08-25T21:23:21.959Z,12.75
2022-08-25T21:25:51.783Z,15.25
2022-08-25T21:28:20.715Z,14.95
2022-08-25T21:30:51.450Z,13.00
2022-08-25T21:33:26.345Z,15.73
2022-08-25T21:35:57.169Z,12.10
2022-08-25T21:38:27.267Z,14.43
2022-08-25T21:40:57.223Z,11.90
2022-08-25T21:43:26.622Z,12.43
2022-08-25T21:45:56.744Z,15.05
2022-08-25T21:48:26.216Z,15.38
2022-08-25T21:51:04.536Z,13.73
2022-08-25T21:53:35.623Z,14.98
2022-08-25T21:56:06.155Z,14.95
2022-08-25T21:58:36.391Z,12.32
2022-08-25T22:01:10.977Z,14.05
2022-08-25T22:03:41.066Z,12.07
2022-08-25T22:06:11.675Z,14.93
2022-08-25T22:08:43.718Z,16.33
2022-08-25T22:11:18.550Z,13.52
2022-08-25T22:13:50.410Z,15.40
2022-08-25T22:16:20.880Z,15.85
2022-08-25T22:18:51.471Z,15.00
2022-08-25T22:21:23.229Z,15.85
2022-08-25T22:23:52.072Z,13.90
2022-08-25T22:26:22.065Z,16.08
2022-08-25T22:28:51.333Z,14.18
2022-08-25T22:31:21.492Z,17.25
2022-08-25T22:33:50.803Z,12.60
2022-08-25T22:36:21.661Z,15.70
2022-08-25T22:38:51.328Z,18.65
2022-08-25T22:41:21.682Z,16.45
2022-08-25T22:43:51.796Z,16.08
2022-08-25T22:46:25.702Z,12.45
2022-08-25T22:48:58.436Z,13.07
2022-08-25T22:51:31.631Z,15.88
2022-08-25T22:54:02.101Z,13.27
2022-08-25T22:56:35.650Z,17.17
2022-08-25T22:59:07.967Z,12.55
2022-08-25T23:01:39.752Z,13.73
2022-08-25T23:04:09.032Z,16.85
2022-08-25T23:06:39.645Z,15.55
2022-08-25T23:09:10.866Z,11.95
2022-08-25T23:11:40.154Z,13.55
2022-08-25T23:14:11.166Z,14.98
2022-08-25T23:16:42.899Z,13.45
2022-08-25T23:19:13.985Z,15.30
2022-08-25T23:22:01.675Z,15.82
2022-08-25T23:24:31.083Z,15.30
2022-08-25T23:27:02.282Z,18.00
2022-08-25T23:29:34.267Z,13.18
2022-08-25T23:32:07.396Z,16.80
2022-08-25T23:34:39.505Z,12.50
2022-08-25T23:37:08.792Z,18.38
2022-08-25T23:39:39.284Z,15.70
2022-08-25T23:42:08.913Z,12.75
2022-08-25T23:44:38.272Z,14.10
2022-08-25T23:47:08.402Z,13.77
2022-08-25T23:49:41.136Z,14.68
2022-08-25T23:52:09.913Z,14.70
2022-08-25T23:54:39.390Z,17.23
2022-08-25T23:57:08.823Z,16.17
2022-08-25T23:59:38.506Z,15.65
